Retsil, Washington
Current Conditions -  °F | °C
As of 8:55 AM on Friday 28 Nov 2014 (Local Time) from KPWT Reporting Station
Overcast Overcast  
Wind Chill: 52°   Ceiling: 600
Heat Index: 52°   Visibility: 10mi
Dew Point: 50°   Wind: 12mph
Humidity: 94%   Direction: 190°S
Pressure: 29.52"   Gusts: 20mph
Location:  47.53°N, 122.59°W
Report Text: KPWT 281655Z AUTO 19010G17KT 10SM BKN006 OVC012 11/10 A2952 RMK AO1 P0009
Loading
Personal Weather Stations






























Interactive Weather Map New forecast layout! Learn more

10-Day Weather Forecast

Advertisements
Track Severe Weather on mobile